Station: Robe Airport  

  Atmospheric Gas Attenuation - ITU Rec 676-11   ----------------- dB/100km -----------------
Date Time Temp RH % AH g/m3 Dew Point Wind Direction Speed kph Gust kph Barometer mB Rainfall Since 9am 24GHz 47GHz 76GHz 122GHz 134GHz 241GHz
06/05 22:10 11.3 57 5.82 3.1 32 39 1024.7 1 13.8 22.6 30.6 79.6 66.3 225.3
06/05 22:00 10.5 70 6.79 5.3 32 48 1024.7 1 15.9 24.3 34.6 90.4 79.3 271.0
06/05 21:50 11 66 6.61 4.9 33 44 1024.6 1 15.5 23.9 33.7 88.0 76.5 261.1
06/05 21:40 11.6 54 5.61 2.6 30 37 1024.4 1 13.3 22.2 29.7 77.2 63.4 215.4
06/05 21:30 11.2 68 6.89 5.5 30 41 1024.3 1 16.0 24.3 34.7 90.6 79.9 273.0
06/05 21:20 11.3 68 6.94 5.6 28 35 1024.3 1 16.1 24.3 34.9 91.1 80.4 275.0
06/05 21:10 11.8 55 5.79 3 22 26 1024.2 1 13.7 22.4 30.3 78.8 65.4 222.6
06/05 21:00 12.3 51 5.54 2.5 32 46 1024 1 13.1 21.9 29.2 75.8 62.0 210.5
06/05 20:50 12.4 49 5.35 2.2 30 41 1023.9 1 12.7 21.6 28.4 73.9 59.6 202.2
06/05 20:40 11.8 59 6.21 4 30 35 1023.9 1 14.6 23.1 31.8 83.0 70.6 240.7
06/05 20:30 10.7 67 6.58 4.8 20 33 1024 1 15.4 23.9 33.7 87.9 76.3 260.7
06/05 20:20 10.9 66 6.57 4.8 24 28 1024.1 1 15.4 23.9 33.6 87.6 76.0 259.6
06/05 20:10 12.3 53 5.76 3 30 33 1023.8 1 13.6 22.3 30.0 78.0 64.6 219.8
06/05 20:00 12.3 52 5.65 2.7 24 37 1023.7 1 13.4 22.1 29.5 76.9 63.3 215.1
06/05 19:50 11.9 51 5.4 2.1 28 37 1023.6 1 12.9 21.8 28.8 74.8 60.6 205.5
06/05 19:40 11.8 52 5.47 2.2 32 43 1023.5 1 13.0 21.9 29.1 75.6 61.5 208.7
06/05 19:30 11.6 53 5.51 2.4 24 37 1023.5 1 13.1 22.0 29.3 76.1 62.1 211.0
06/05 19:20 11.4 58 5.95 3.4 28 35 1023.4 1 14.0 22.8 31.0 80.7 67.7 230.5
06/05 19:10 11.5 56 5.79 3 33 43 1023.3 1 13.7 22.5 30.3 79.0 65.6 223.2
06/05 19:00 11.5 58 5.99 3.5 32 50 1023.2 1 14.1 22.8 31.1 81.0 68.1 231.9
06/05 18:50 12 64 6.82 5.4 33 43 1023.1 1 15.9 23.9 34.0 88.9 78.1 266.9
06/05 18:40 12.2 55 5.94 3.4 20 28 1022.9 1 14.0 22.5 30.6 79.8 66.9 227.7
06/05 18:30 12 63 6.71 5.2 32 41 1022.8 1 15.6 23.7 33.6 87.7 76.7 261.9
06/05 18:20 11.8 64 6.74 5.2 32 43 1022.7 1 15.7 23.8 33.8 88.3 77.2 263.9
06/05 18:10 12.4 63 6.88 5.5 43 56 1022.4 1 16.0 23.9 34.1 89.0 78.4 268.1
06/05 18:00 12.8 53 5.94 3.5 30 43 1022.3 1 14.0 22.4 30.4 79.1 66.3 225.8
06/05 17:50 12.7 60 6.68 5.3 33 43 1022.2 1 15.5 23.5 33.2 86.6 75.6 258.2
06/05 17:40 12.6 62 6.86 5.5 30 39 1022.1 1 15.9 23.8 33.9 88.5 77.9 266.5
06/05 17:30 12.3 72 7.82 7.4 33 52 1021.9 1 18.0 25.4 37.8 98.9 90.6 310.9
06/05 17:20 13 68 7.71 7.2 41 54 1021.6 1 17.7 25.0 37.0 96.9 88.4 303.1
06/05 17:10 12.8 65 7.28 6.4 24 32 1021.5 1 16.8 24.4 35.4 92.6 83.0 284.4
06/05 17:00 12.7 72 8.02 7.8 28 46 1021.4 1 18.4 25.6 38.4 100.5 92.7 318.5
06/05 16:50 13 70 7.94 7.6 32 41 1021.3 1 18.2 25.4 37.9 99.3 91.3 313.5
06/05 16:40 13 70 7.94 7.6 30 41 1021.3 1 18.2 25.4 37.9 99.3 91.3 313.5
06/05 16:30 13.4 70 8.14 8 35 52 1021.1 1 18.6 25.6 38.5 100.9 93.5 321.1
06/05 16:20 13.9 64 7.67 7.2 32 43 1020.9 1 17.6 24.7 36.4 95.3 86.8 297.7
06/05 16:10 13.8 65 7.74 7.3 32 43 1020.8 1 17.7 24.8 36.7 96.1 87.8 301.2
06/05 16:00 14.1 63 7.65 7.2 32 44 1020.7 1 17.5 24.6 36.2 94.8 86.3 296.0
06/05 15:50 14.1 66 8.01 8 30 35 1020.6 1 18.3 25.1 37.6 98.6 90.9 312.2
06/05 15:40 14.3 65 7.99 7.8 30 37 1020.4 1 18.3 25.0 37.5 98.1 90.4 310.5
06/05 15:30 14.4 69 8.53 8.8 32 46 1020.3 1 19.4 25.9 39.5 103.6 97.3 334.6
06/05 15:20 14.4 69 8.53 8.8 33 44 1020.2 1 19.4 25.9 39.5 103.6 97.3 334.6
06/05 15:10 14.6 68 8.51 8.9 35 44 1020 1 19.4 25.8 39.3 103.1 96.8 332.8
06/05 15:00 14.8 73 9.25 10 30 43 1020 1 20.9 26.9 42.2 110.8 106.3 366.2
06/05 14:50 14.7 75 9.44 10.3 28 32 1019.8 1 21.3 27.2 43.0 113.0 109.0 375.5
06/05 14:40 14.4 77 9.52 10.4 26 33 1019.8 1 21.5 27.5 43.5 114.3 110.5 380.8
06/05 14:30 14.1 79 9.59 10.5 28 44 1019.6 1 21.7 27.7 44.0 115.5 111.9 385.5
06/05 14:20 14 86 10.37 11.7 28 33 1019.5 1 23.4 29.0 47.3 124.5 122.8 423.9
06/05 14:10 13.4 90 10.46 11.8 30 35 1019.5 1 23.6 29.4 48.1 126.5 125.1 431.7
06/05 14:00 13.5 90 10.53 11.9 30 50 1019.5 1 23.7 29.5 48.3 127.1 125.9 434.6
06/05 13:50 14.4 87 10.75 12.2 24 33 1019.4 0.8 24.2 29.6 48.7 128.2 127.5 440.4
06/05 13:40 15.9 75 10.16 11.6 19 24 1019.1 0.2 22.8 28.0 45.3 119.1 116.9 403.5
06/05 13:30 17.5 68 10.14 11.5 22 35 1019.1 0.2 22.7 27.5 44.3 116.5 114.3 394.4
06/05 13:20 17.2 69 10.1 11.6 22 30 1019.2 0.2 22.6 27.5 44.3 116.5 114.2 394.1
06/05 13:10 17 71 10.27 11.7 17 24 1019.3 0.2 23.0 27.9 45.1 118.6 116.8 403.1
06/05 13:00 16.7 75 10.66 12.3 19 30 1019.3 0.2 23.8 28.6 46.9 123.4 122.5 423.2
06/05 12:50 17.1 74 10.77 12.4 19 30 1019.4 0.2 24.0 28.7 47.1 124.0 123.4 426.3
06/05 12:40 16.6 75 10.59 12.1 17 26 1019.5 0.2 23.7 28.6 46.7 122.8 121.7 420.4
06/05 12:30 17 80 11.58 13.5 17 30 1019.6 0.2 25.8 30.1 50.6 133.3 134.8 466.1
06/05 12:20 16.3 79 10.96 12.6 19 26 1019.9 0.2 24.5 29.3 48.5 127.5 127.4 440.1
06/05 12:10 17.1 71 10.33 11.8 15 19 1019.9 0.2 23.1 28.0 45.4 119.2 117.5 405.6
06/05 12:00 17.3 67 9.87 11.1 22 35 1020 0.2 22.1 27.2 43.4 113.9 111.0 383.1
06/05 11:50 16.8 68 9.72 11 20 28 1020.2 0.2 21.8 27.1 43.1 113.1 109.8 378.7
06/05 11:40 17.3 68 10.02 11.5 17 20 1020.3 0.2 22.4 27.4 44.0 115.6 113.1 390.2
06/05 11:30 17.3 70 10.31 11.8 20 33 1020.4 0.2 23.0 27.9 45.2 118.8 116.9 403.8
06/05 11:20 17.9 70 10.69 12.3 17 26 1020.5 0.2 23.8 28.3 46.4 122.0 121.1 418.5
06/05 11:10 17.4 67 9.93 11.2 20 24 1020.3 0.2 22.2 27.2 43.6 114.5 111.7 385.5
06/05 11:00 17.2 66 9.66 10.8 20 32 1020.3 0.2 21.7 26.9 42.6 111.9 108.4 374.0
06/05 10:50 17.1 67 9.75 10.9 20 28 1020.3 0.2 21.9 27.0 43.0 113.0 109.8 378.6
06/05 09:10 15.6 76 10.11 11.5 22 26 1020.6 0 22.7 28.1 45.3 119.2 116.8 403.1
06/05 09:00 15.3 86 11.23 13 11 28 1020.5 0 25.1 30.1 50.3 132.3 132.9 459.4
06/05 08:50 15.1 88 11.35 13.1 9 11 1020.5 2 25.4 30.4 50.9 134.1 135.0 466.5
06/05 08:40 14.6 89 11.14 12.8 9 13 1020.5 2 25.0 30.2 50.3 132.5 132.9 459.0
06/05 08:30 14.6 89 11.14 12.8 15 26 1020.6 2 25.0 30.2 50.3 132.5 132.9 459.1
06/05 08:20 15 91 11.67 13.5 11 22 1020.5 2 26.1 31.0 52.4 138.0 139.8 483.3
06/05 08:10 14.8 92 11.65 13.5 9 11 1020.4 2 26.1 31.0 52.4 138.1 139.9 483.5
06/05 08:00 14.5 93 11.57 13.4 13 24 1020.3 2 25.9 31.0 52.3 137.7 139.2 481.3
06/05 07:50 14.4 92 11.37 13.2 15 20 1020.3 2 25.5 30.7 51.5 135.5 136.5 471.7
06/05 07:40 14.4 94 11.62 13.4 11 17 1020.3 2 26.0 31.1 52.6 138.4 140.2 484.4
06/05 07:30 14.3 93 11.43 13.2 19 35 1020.2 2 25.6 30.8 51.8 136.4 137.6 475.4
06/05 07:20 14.7 92 11.58 13.4 22 32 1020.1 2 25.9 30.9 52.2 137.4 139.0 480.5
06/05 07:10 15.1 92 11.87 13.8 13 17 1020 2 26.5 31.3 53.2 140.1 142.5 492.6
06/05 07:00 15.3 92 12.01 14 17 24 1020 1.4 26.8 31.5 53.7 141.4 144.1 498.4
06/05 06:50 15.2 92 11.94 13.9 19 24 1020 1.4 26.7 31.4 53.4 140.8 143.3 495.5
06/05 06:40 15.2 92 11.94 13.9 17 20 1020 1.4 26.7 31.4 53.4 140.8 143.3 495.5
06/05 06:30 15.1 92 11.87 13.8 15 19 1020 1.4 26.5 31.3 53.2 140.1 142.5 492.6
06/05 06:20 14.9 92 11.73 13.6 15 19 1020.1 1.4 26.2 31.1 52.7 138.8 140.8 486.8
06/05 06:10 14.8 92 11.65 13.5 15 17 1020.1 1.4 26.1 31.0 52.4 138.1 139.8 483.4
06/05 06:00 14.8 92 11.65 13.5 17 24 1020.2 1.4 26.1 31.0 52.4 138.1 139.8 483.4
06/05 05:50 14.9 91 11.6 13.4 19 22 1020.2 1.2 25.9 30.9 52.1 137.3 138.9 480.2
06/05 05:40 14.6 91 11.39 13.1 17 20 1020.1 1.2 25.5 30.6 51.4 135.3 136.4 471.5
06/05 05:30 14.4 91 11.25 13 15 20 1020.1 1.2 25.2 30.5 50.9 134.1 134.8 465.6
06/05 05:20 14.4 91 11.25 12.9 19 22 1020.1 1.2 25.2 30.5 50.9 134.1 134.8 465.6
06/05 05:10 14.3 92 11.3 13 13 17 1020.2 1.2 25.3 30.6 51.2 134.8 135.7 468.8
06/05 05:00 14.5 92 11.44 13.2 17 22 1020.1 1.2 25.6 30.8 51.7 136.1 137.3 474.6
06/05 04:50 14.4 92 11.37 13.1 11 13 1020.2 1.2 25.5 30.7 51.5 135.5 136.5 471.7
06/05 04:40 14.2 92 11.23 12.9 13 15 1020.2 1.2 25.2 30.5 51.0 134.2 134.8 465.9
06/05 04:30 14.2 92 11.23 12.9 15 20 1020.2 1.2 25.2 30.5 51.0 134.2 134.8 465.9
06/05 04:20 14.3 92 11.3 13 17 20 1020.3 1.2 25.3 30.6 51.2 134.8 135.7 468.8
06/05 04:10 14.1 92 11.17 12.8 13 17 1020.3 1.2 25.1 30.4 50.8 133.7 134.2 463.5

Last Refresh: 06-May-2026 22:14:10

Bureau of Meteorology